createdAt,value
2019-01-06T00:03:36.424Z,97602.13
2019-01-06T00:06:23.588Z,97603.77
2019-01-06T00:09:02.758Z,97613.34
2019-01-06T00:11:51.438Z,97604.64
2019-01-06T00:14:51.620Z,97603.77
2019-01-06T00:20:40.379Z,97623.14
2019-01-06T00:23:39.718Z,97609.14
2019-01-06T00:26:18.731Z,97611.82
2019-01-06T00:29:19.187Z,97620.93
2019-01-06T00:32:06.393Z,97619.49
2019-01-06T00:44:54.252Z,97641.62
2019-01-06T00:48:04.965Z,97643.77
2019-01-06T00:50:44.979Z,97648.45
2019-01-06T00:53:32.516Z,97645.83
2019-01-06T00:59:22.053Z,97646.14
2019-01-06T01:02:09.289Z,97644.31
2019-01-06T01:04:56.408Z,97635.15
2019-01-06T01:07:56.347Z,97638.97
2019-01-06T01:10:43.602Z,97628.63
2019-01-06T01:13:22.652Z,97638.90
2019-01-06T01:16:01.716Z,97638.17
2019-01-06T01:19:02.018Z,97639.57
2019-01-06T01:21:42.155Z,97636.56
2019-01-06T01:24:42.371Z,97634.71
2019-01-06T01:27:29.605Z,97633.08
2019-01-06T01:30:08.645Z,97633.50
2019-01-06T01:33:08.866Z,97627.92
2019-01-06T01:35:56.081Z,97629.59
2019-01-06T01:39:04.485Z,97632.20
2019-01-06T01:41:43.413Z,97644.64
2019-01-06T01:47:47.060Z,97638.86
2019-01-06T01:50:32.132Z,97649.27
2019-01-06T01:53:19.324Z,97648.43
2019-01-06T01:56:19.261Z,97648.39
2019-01-06T01:59:18.458Z,97648.17
2019-01-06T02:02:31.668Z,97648.55
2019-01-06T02:05:40.245Z,97651.38
2019-01-06T02:12:00.161Z,97649.31
2019-01-06T02:33:07.119Z,97646.00
2019-01-06T02:35:54.333Z,97653.08
2019-01-06T02:38:54.199Z,97652.41
2019-01-06T02:41:41.394Z,97654.09
2019-01-06T02:44:41.721Z,97652.66
2019-01-06T02:47:28.903Z,97656.23
2019-01-06T02:50:08.093Z,97646.56
2019-01-06T02:53:08.244Z,97643.78
2019-01-06T02:55:55.439Z,97639.91
2019-01-06T02:58:55.554Z,97638.28
2019-01-06T03:01:42.733Z,97633.30
2019-01-06T03:04:41.905Z,97636.31
2019-01-06T03:07:42.205Z,97649.30
2019-01-06T03:10:42.399Z,97638.87
2019-01-06T03:13:42.745Z,97637.98
2019-01-06T03:16:29.992Z,97631.10
2019-01-06T03:22:16.897Z,97636.59
2019-01-06T03:28:09.009Z,97643.95
2019-01-06T03:31:08.674Z,97635.16
2019-01-06T03:34:07.866Z,97640.78
2019-01-06T03:36:55.093Z,97635.16
2019-01-06T03:39:54.250Z,97638.37
2019-01-06T03:42:53.648Z,97634.73
2019-01-06T03:45:32.937Z,97630.69
2019-01-06T03:48:32.274Z,97646.61
2019-01-06T03:51:19.489Z,97639.59
2019-01-06T03:54:19.519Z,97630.27
2019-01-06T03:57:20.930Z,97638.16
2019-01-06T04:00:08.110Z,97616.61
2019-01-06T04:03:08.201Z,97638.31
2019-01-06T04:05:55.374Z,97628.16
2019-01-06T04:08:55.596Z,97619.06
2019-01-06T04:11:54.911Z,97642.53
2019-01-06T04:17:49.499Z,97633.84
2019-01-06T04:20:50.583Z,97641.89
2019-01-06T04:23:50.648Z,97636.00
2019-01-06T04:26:59.217Z,97640.17
2019-01-06T04:30:05.826Z,97641.35
2019-01-06T04:32:44.966Z,97639.50
2019-01-06T04:35:24.102Z,97633.77
2019-01-06T04:38:24.267Z,97649.06
2019-01-06T04:41:39.607Z,97636.27
2019-01-06T04:44:47.067Z,97652.83
2019-01-06T04:47:26.212Z,97636.91
2019-01-06T04:50:26.032Z,97650.95
2019-01-06T04:53:25.431Z,97651.33
2019-01-06T04:56:25.502Z,97646.38
2019-01-06T04:59:25.764Z,97658.58
2019-01-06T05:05:26.576Z,97674.55
2019-01-06T05:08:26.883Z,97656.23
2019-01-06T05:11:27.239Z,97666.38
2019-01-06T05:17:28.711Z,97671.61
2019-01-06T05:23:47.467Z,97691.05
2019-01-06T05:26:47.549Z,97692.08
2019-01-06T05:29:34.798Z,97687.55
2019-01-06T05:32:13.883Z,97694.52
2019-01-06T05:35:01.087Z,97696.11
2019-01-06T05:37:48.349Z,97694.00
2019-01-06T05:40:35.537Z,97705.67
2019-01-06T05:43:36.565Z,97707.94
2019-01-06T05:46:23.812Z,97697.36
2019-01-06T05:49:23.330Z,97708.11
2019-01-06T05:52:06.011Z,97702.03
2019-01-06T05:54:53.176Z,97727.73
2019-01-06T05:57:52.568Z,97703.41
2019-01-06T06:00:31.639Z,97708.55
2019-01-06T06:03:31.181Z,97698.53
2019-01-06T06:06:18.510Z,97689.72
2019-01-06T06:09:05.783Z,97713.87
2019-01-06T06:12:05.935Z,97699.85
2019-01-06T06:15:05.955Z,97719.67
2019-01-06T06:21:05.327Z,97734.00
2019-01-06T06:26:54.031Z,97740.40
2019-01-06T06:29:41.207Z,97755.88
2019-01-06T06:32:42.833Z,97745.87
2019-01-06T06:35:43.539Z,97748.44
2019-01-06T06:38:30.773Z,97747.13
2019-01-06T06:41:17.956Z,97757.48
2019-01-06T06:44:05.247Z,97753.02
2019-01-06T06:47:14.515Z,97766.44
2019-01-06T06:50:14.480Z,97751.33
2019-01-06T06:56:28.975Z,97763.52
2019-01-06T06:59:29.275Z,97769.93
2019-01-06T07:02:55.270Z,97779.03
2019-01-06T07:08:32.779Z,97797.91
2019-01-06T07:11:19.934Z,97804.55
2019-01-06T07:14:23.830Z,97818.88
2019-01-06T07:17:49.757Z,97819.22
2019-01-06T07:20:29.302Z,97812.53
2019-01-06T07:26:19.364Z,97820.78
2019-01-06T07:29:18.805Z,97812.45
2019-01-06T07:32:25.425Z,97809.42
2019-01-06T07:35:25.150Z,97805.70
2019-01-06T07:41:14.126Z,97837.11
2019-01-06T07:44:14.406Z,97830.15
2019-01-06T07:50:03.161Z,97848.31
2019-01-06T07:53:06.047Z,97822.59
2019-01-06T07:59:06.883Z,97833.03
2019-01-06T08:01:54.368Z,97819.39
2019-01-06T08:04:42.143Z,97837.45
2019-01-06T08:07:34.390Z,97849.64
2019-01-06T08:13:22.835Z,97862.77
2019-01-06T08:22:25.025Z,97848.70
2019-01-06T08:25:25.192Z,97847.03
2019-01-06T08:28:04.206Z,97848.06
2019-01-06T08:31:01.833Z,97855.96
2019-01-06T08:39:41.680Z,97868.58
2019-01-06T08:42:35.834Z,97877.08
2019-01-06T08:48:15.559Z,97887.20
2019-01-06T08:51:15.833Z,97893.63
2019-01-06T08:54:15.115Z,97893.80
2019-01-06T08:57:14.526Z,97904.89
2019-01-06T09:03:36.406Z,97906.77
2019-01-06T09:06:36.696Z,97911.48
2019-01-06T09:09:45.312Z,97909.73
2019-01-06T09:12:27.082Z,97915.41
2019-01-06T09:15:14.269Z,97923.39
2019-01-06T09:18:01.439Z,97918.88
2019-01-06T09:20:48.685Z,97914.97
2019-01-06T09:23:36.069Z,97920.52
2019-01-06T09:26:24.896Z,97917.02
2019-01-06T09:29:12.129Z,97933.42
2019-01-06T09:32:02.559Z,97926.84
2019-01-06T09:35:01.758Z,97920.37
2019-01-06T09:37:49.154Z,97928.48
2019-01-06T09:40:50.399Z,97936.88
2019-01-06T09:43:37.934Z,97942.77
2019-01-06T09:49:39.003Z,97943.30
2019-01-06T09:52:38.331Z,97943.23
2019-01-06T09:55:38.641Z,97941.41
2019-01-06T09:58:38.898Z,97957.22
2019-01-06T10:01:39.117Z,97961.39
2019-01-06T10:04:39.407Z,97956.64
2019-01-06T10:07:39.663Z,97962.34
2019-01-06T10:10:39.882Z,97956.75
2019-01-06T10:16:49.068Z,97956.69
2019-01-06T10:19:28.084Z,97964.25
2019-01-06T10:22:27.814Z,97964.78
2019-01-06T10:25:27.607Z,97974.62
2019-01-06T10:28:27.353Z,97970.13
2019-01-06T10:31:27.552Z,97965.77
2019-01-06T10:37:39.650Z,97965.50
2019-01-06T10:43:41.413Z,97971.50
2019-01-06T10:46:41.800Z,97954.70
2019-01-06T10:52:51.904Z,97957.11
2019-01-06T10:55:52.185Z,97954.34
2019-01-06T10:58:39.475Z,97964.92
2019-01-06T11:01:39.248Z,97943.20
2019-01-06T11:04:39.526Z,97950.74
2019-01-06T11:07:42.851Z,97956.64
2019-01-06T11:19:50.816Z,97953.16
2019-01-06T11:25:32.257Z,97954.81
2019-01-06T11:28:31.655Z,97964.30
2019-01-06T11:31:43.360Z,97964.76
2019-01-06T11:34:23.625Z,97955.89
2019-01-06T11:40:25.103Z,97951.66
2019-01-06T11:43:04.407Z,97954.39
2019-01-06T11:46:04.318Z,97959.59
2019-01-06T11:55:18.611Z,97972.13
2019-01-06T11:58:19.356Z,97959.45
2019-01-06T12:01:06.542Z,97958.13
2019-01-06T12:04:14.916Z,97969.34
2019-01-06T12:06:55.932Z,97965.22
2019-01-06T12:09:43.094Z,97968.39
2019-01-06T12:12:30.281Z,97956.59
2019-01-06T12:15:09.395Z,97968.41
2019-01-06T12:17:56.613Z,97975.03
2019-01-06T12:20:43.840Z,97975.22
2019-01-06T12:23:31.159Z,97971.27
2019-01-06T12:29:27.944Z,97967.39
2019-01-06T12:38:27.100Z,97968.94
2019-01-06T12:41:06.027Z,97976.73
2019-01-06T12:43:53.259Z,97975.80
2019-01-06T12:46:53.828Z,97981.28
2019-01-06T12:49:41.050Z,97981.42
2019-01-06T12:52:28.364Z,97980.13
2019-01-06T12:55:15.598Z,97988.22
2019-01-06T12:58:02.811Z,97993.07
2019-01-06T13:00:50.005Z,97993.34
2019-01-06T13:03:37.297Z,97995.98
2019-01-06T13:06:45.776Z,97991.08
2019-01-06T13:09:33.041Z,97999.27
2019-01-06T13:12:22.155Z,98010.80
2019-01-06T13:15:09.457Z,98001.19
2019-01-06T13:17:48.410Z,98003.48
2019-01-06T13:20:48.367Z,98009.52
2019-01-06T13:23:30.164Z,98023.72
2019-01-06T13:26:42.094Z,98015.06
2019-01-06T13:29:29.390Z,98019.02
2019-01-06T13:32:10.795Z,98002.09
2019-01-06T13:34:58.044Z,98004.56
2019-01-06T13:37:46.904Z,98000.27
2019-01-06T13:50:03.903Z,98008.56
2019-01-06T13:52:43.087Z,98015.59
2019-01-06T13:58:44.608Z,98002.93
2019-01-06T14:01:23.690Z,98000.57
2019-01-06T14:04:25.200Z,98000.72
2019-01-06T14:07:31.872Z,98001.27
2019-01-06T14:10:31.206Z,98000.38
2019-01-06T14:19:42.503Z,98022.88
2019-01-06T14:22:43.925Z,98023.64
2019-01-06T14:28:32.385Z,98038.02
2019-01-06T14:31:19.765Z,98040.66
2019-01-06T14:34:07.008Z,98051.14
2019-01-06T14:36:54.210Z,98043.33
2019-01-06T14:39:54.331Z,98054.49
2019-01-06T14:42:41.499Z,98053.52
2019-01-06T14:45:30.248Z,98059.47
2019-01-06T14:48:17.517Z,98057.75
2019-01-06T14:51:13.523Z,98053.91
2019-01-06T14:54:00.825Z,98057.99
2019-01-06T14:56:48.065Z,98054.89
2019-01-06T14:59:35.309Z,98046.90
2019-01-06T15:02:20.190Z,98055.02
2019-01-06T15:05:10.001Z,98045.50
2019-01-06T15:11:10.034Z,98049.69
2019-01-06T15:17:11.751Z,98063.02
2019-01-06T15:20:12.046Z,98054.58
2019-01-06T15:23:11.389Z,98060.20
2019-01-06T15:26:19.849Z,98059.88
2019-01-06T15:29:31.209Z,98057.62
2019-01-06T15:32:30.803Z,98080.05
2019-01-06T15:35:31.006Z,98077.51
2019-01-06T15:38:30.400Z,98089.15
2019-01-06T15:41:15.654Z,98085.00
2019-01-06T15:44:39.221Z,98094.75
2019-01-06T15:47:38.895Z,98111.20
2019-01-06T15:50:40.225Z,98117.46
2019-01-06T15:53:40.147Z,98117.23
2019-01-06T15:56:50.597Z,98117.03
2019-01-06T15:59:50.882Z,98117.49
2019-01-06T16:05:31.332Z,98123.07
2019-01-06T16:08:30.586Z,98120.58
2019-01-06T16:11:29.939Z,98115.02
2019-01-06T16:14:29.937Z,98126.09
2019-01-06T16:17:35.366Z,98127.08
2019-01-06T16:20:35.753Z,98130.46
2019-01-06T16:23:35.865Z,98137.86
2019-01-06T16:26:35.355Z,98135.91
2019-01-06T16:29:35.458Z,98144.68
2019-01-06T16:32:35.707Z,98136.82
2019-01-06T16:35:35.867Z,98144.17
2019-01-06T16:38:37.102Z,98141.02
2019-01-06T16:41:37.405Z,98148.52
2019-01-06T16:44:36.808Z,98146.82
2019-01-06T16:47:36.123Z,98142.23
2019-01-06T16:50:36.224Z,98151.34
2019-01-06T16:56:55.329Z,98157.07
2019-01-06T17:00:03.752Z,98142.14
2019-01-06T17:03:03.333Z,98151.84
2019-01-06T17:06:03.703Z,98147.82
2019-01-06T17:09:03.899Z,98153.84
2019-01-06T17:12:04.292Z,98147.41
2019-01-06T17:18:14.718Z,98140.59
2019-01-06T17:21:14.581Z,98141.00
2019-01-06T17:24:16.010Z,98141.30
2019-01-06T17:27:15.486Z,98148.80
2019-01-06T17:30:14.965Z,98141.52
2019-01-06T17:33:16.164Z,98144.56
2019-01-06T17:36:17.653Z,98159.00
2019-01-06T17:39:17.953Z,98161.10
2019-01-06T17:42:18.183Z,98165.48
2019-01-06T17:45:17.594Z,98152.17
2019-01-06T17:48:28.269Z,98164.59
2019-01-06T17:51:28.521Z,98172.73
2019-01-06T17:54:28.769Z,98173.58
2019-01-06T17:57:47.958Z,98160.45
2019-01-06T18:00:34.029Z,98178.81
2019-01-06T18:03:21.719Z,98182.00
2019-01-06T18:11:23.634Z,98189.64
2019-01-06T18:17:45.054Z,98201.23
2019-01-06T18:21:04.322Z,98192.55
2019-01-06T18:27:23.518Z,98206.30
2019-01-06T18:30:32.147Z,98202.51
2019-01-06T18:33:32.298Z,98217.09
2019-01-06T18:36:41.546Z,98216.59
2019-01-06T18:39:41.044Z,98220.23
2019-01-06T18:42:40.521Z,98236.78
2019-01-06T18:45:49.031Z,98233.58
2019-01-06T18:48:48.719Z,98244.55
2019-01-06T18:54:49.734Z,98251.98
2019-01-06T18:57:56.351Z,98257.98
2019-01-06T19:00:36.490Z,98256.90
2019-01-06T19:06:23.110Z,98263.63
2019-01-06T19:12:20.373Z,98261.70
2019-01-06T19:15:19.938Z,98253.98
2019-01-06T19:18:19.620Z,98262.22
2019-01-06T19:21:19.042Z,98261.62
2019-01-06T19:24:18.649Z,98266.25
2019-01-06T19:27:19.038Z,98267.17
2019-01-06T19:30:19.301Z,98264.09
2019-01-06T19:36:25.577Z,98254.55
2019-01-06T19:39:29.090Z,98261.03
2019-01-06T19:42:29.600Z,98266.70
2019-01-06T19:45:29.776Z,98262.08
2019-01-06T19:56:50.544Z,98262.13
2019-01-06T20:02:38.186Z,98270.90
2019-01-06T20:21:06.073Z,98299.98
2019-01-06T20:24:06.316Z,98296.08
2019-01-06T20:27:05.802Z,98307.00
2019-01-06T20:30:14.341Z,98305.70
2019-01-06T20:33:13.898Z,98302.20
2019-01-06T20:36:13.377Z,98294.37
2019-01-06T20:39:56.009Z,98285.78
2019-01-06T20:42:43.503Z,98294.10
2019-01-06T20:45:29.301Z,98298.16
2019-01-06T20:48:25.418Z,98294.25
2019-01-06T20:51:11.364Z,98306.05
2019-01-06T20:54:01.489Z,98303.11
2019-01-06T20:56:47.117Z,98299.66
2019-01-06T20:59:32.750Z,98309.64
2019-01-06T21:02:26.248Z,98310.11
2019-01-06T21:05:12.207Z,98316.70
2019-01-06T21:08:02.270Z,98315.84
2019-01-06T21:10:55.537Z,98308.70
2019-01-06T21:13:41.401Z,98314.08
2019-01-06T21:16:27.336Z,98316.70
2019-01-06T21:19:14.720Z,98311.55
2019-01-06T21:22:13.883Z,98319.75
2019-01-06T21:25:07.818Z,98324.77
2019-01-06T21:27:54.723Z,98322.64
2019-01-06T21:30:50.917Z,98328.23
2019-01-06T21:33:36.932Z,98318.67
2019-01-06T21:36:23.635Z,98312.14
2019-01-06T21:39:28.618Z,98325.63
2019-01-06T21:42:28.423Z,98327.42
2019-01-06T21:45:20.331Z,98324.39
2019-01-06T21:48:08.175Z,98323.97
2019-01-06T21:51:04.487Z,98321.36
2019-01-06T21:53:50.002Z,98322.23
2019-01-06T21:56:55.429Z,98320.11
2019-01-06T21:59:41.377Z,98331.77
2019-01-06T22:02:26.937Z,98335.63
2019-01-06T22:05:12.892Z,98340.34
2019-01-06T22:08:05.704Z,98330.77
2019-01-06T22:10:53.101Z,98337.70
2019-01-06T22:13:52.805Z,98348.59
2019-01-06T22:16:36.529Z,98343.73
2019-01-06T22:19:35.679Z,98338.52
2019-01-06T22:22:13.376Z,98334.95
2019-01-06T22:25:09.548Z,98341.84
2019-01-06T22:27:55.580Z,98342.77
2019-01-06T22:30:41.474Z,98347.11
2019-01-06T22:33:37.546Z,98350.09
2019-01-06T22:36:24.816Z,98349.23
2019-01-06T22:39:10.260Z,98351.90
2019-01-06T22:41:56.371Z,98354.95
2019-01-06T22:44:42.061Z,98360.67
2019-01-06T22:47:29.278Z,98363.70
2019-01-06T22:50:16.550Z,98364.17
2019-01-06T22:53:02.501Z,98363.80
2019-01-06T22:55:47.981Z,98375.20
2019-01-06T22:58:33.601Z,98375.27
2019-01-06T23:01:26.834Z,98383.16
2019-01-06T23:04:19.850Z,98391.36
2019-01-06T23:07:23.435Z,98401.36
2019-01-06T23:10:23.793Z,98403.53
2019-01-06T23:13:20.092Z,98403.54
2019-01-06T23:16:05.786Z,98409.67
2019-01-06T23:18:51.456Z,98417.11
2019-01-06T23:21:56.427Z,98413.64
2019-01-06T23:24:50.531Z,98408.86
2019-01-06T23:27:37.773Z,98412.77
2019-01-06T23:30:25.436Z,98414.12
2019-01-06T23:33:15.400Z,98411.94
2019-01-06T23:36:01.568Z,98417.10
2019-01-06T23:38:57.700Z,98420.08
2019-01-06T23:41:43.106Z,98426.56
2019-01-06T23:44:30.371Z,98433.93
2019-01-06T23:47:20.598Z,98444.73
2019-01-06T23:50:20.055Z,98443.48
2019-01-06T23:53:04.541Z,98449.09
2019-01-06T23:55:50.239Z,98444.78
2019-01-06T23:58:35.921Z,98448.27
